Metar Cercanos

 

LEPA - Palma De Mallorc, Spain
Distance from station: ONO 38km
Actualización: 23/09/2017 05:30
Few Clouds
Few Clouds
 Viento del E
Viento: E 7 km/h
Temperatura: 17°C
Rocío: 16°C
Humedad: 94%
Barómetro: 1019 hPa
Clouds: Few Clouds
Visibility: 10 km
Cloud details: Few Clouds 610 m
2017/09/23 03:30 LEPA 230330Z 08004KT 9999 FEW020 17/16 Q1019 NOSIG
LEMH - Mahon/Menorca Is, Spain
Distance from station: ENE 105km
Actualización: 23/09/2017 05:30
Despejado
Despejado
 Viento del NE
Viento: NE 4 km/h
Temperatura: 17°C
Rocío: 15°C
Humedad: 88%
Barómetro: 1020 hPa
Clouds: Despejado
Visibility: 10 km
2017/09/23 03:30 LEMH 230330Z AUTO 04002KT 9999 NCD 17/15 Q1020
 
LEIB - Ibiza/Es Codola, Spain
Distance from station: OSO 165km
Actualización: 23/09/2017 05:30
Muy nuboso
Muy nuboso
 Viento del NNE
Viento: NNE 11 km/h
Temperatura: 21°C
Rocío: 17°C
Humedad: 78%
Barómetro: 1018 hPa
Clouds: Muy nuboso
Visibility: 10 km
Cloud details: Few Clouds 732 m
Muy nuboso 853 m
2017/09/23 03:30 LEIB 230330Z 02006KT 9999 FEW024 BKN028 21/17 Q1018 NOSIG
LEBL - Barcelona Airpor, Spain
Distance from station: NNO 225km
Actualización: 23/09/2017 05:30
Few Clouds
Few Clouds
 Viento del NNO
Viento: NNO 13 km/h
Temperatura: 18°C
Rocío: 15°C
Humedad: 83%
Barómetro: 1020 hPa
Clouds: Few Clouds
Visibility: 10 km
Cloud details: Few Clouds 610 m
2017/09/23 03:30 LEBL 230330Z 33007KT 9999 FEW020 18/15 Q1020 NOSIG
 
LEVC - Valencia (civ/Mi, Spain
Distance from station: NO 188km
Actualización: 23/09/2017 05:30
Parcialmente nuboso
Parcialmente nuboso
 Viento del NNO
Viento: NNO 13 km/h
Temperatura: 18°C
Rocío: 15°C
Humedad: 83%
Barómetro: 1020 hPa
Clouds: Parcialmente nuboso
Visibility: 10 km
Cloud details: Parcialmente nuboso 762 m
2017/09/23 03:30 LEVC 230330Z 33007KT 9999 SCT025 18/15 Q1020 NOSIG
LEGE - Gerona/Costa Bra, Spain
Distance from station: N 276km
Actualización: 23/09/2017 05:30
Parcialmente nuboso
Parcialmente nuboso
 Viento del calm
Viento: Calma
Temperatura: 14°C
Rocío: 13°C
Humedad: 94%
Barómetro: 1020 hPa
Clouds: Parcialmente nuboso
Visibility: 10 km
Cloud details: Few Clouds 762 m
Parcialmente nuboso 914 m
2017/09/23 03:30 LEGE 230330Z 00000KT 9999 FEW025 SCT030 14/13 Q1020
 
LEAL - Alicante/El Alte, Spain
Distance from station: OSO 344km
Actualización: 23/09/2017 05:30
Few Clouds
Few Clouds
 Viento del NO
Viento: NO 11 km/h
Temperatura: 19°C
Rocío: 15°C
Humedad: 78%
Barómetro: 1018 hPa
Clouds: Few Clouds
Visibility: 10 km
Cloud details: Few Clouds 671 m
2017/09/23 03:30 LEAL 230330Z 32006KT 9999 FEW022 19/15 Q1018 NOSIG
LEAM - Almeria Airport, Spain
Distance from station: SSO 56km
Actualización: 23/09/2017 05:30
Despejado
Despejado
 Viento del calm
Viento: Calma
Temperatura: 22°C
Rocío: 15°C
Humedad: 65%
Barómetro: 1017 hPa
Resumen: Despejado
Visibility: greater than 10 km
2017/09/23 03:30 LEAM 230330Z 00000KT CAVOK 22/15 Q1017
 
LEZG - Zaragoza (mil/Ci, Spain
Distance from station: NO 431km
Actualización: 23/09/2017 05:30
Parcialmente nuboso
Parcialmente nuboso
 Viento del SSO
Viento: SSO 4 km/h
Temperatura: 15°C
Rocío: 14°C
Humedad: 94%
Barómetro: 1021 hPa
Clouds: Parcialmente nuboso
Visibility: 10 km
Cloud details: Few Clouds 488 m
Parcialmente nuboso 1067 m
2017/09/23 03:30 LEZG 230330Z 21002KT 9999 FEW016 SCT035 15/14 Q1021
LEMD - Madrid/Barajas, Spain
Distance from station: ONO 234km
Actualización: 23/09/2017 05:30
Despejado
Despejado
 Viento del varies
Viento: varies 4 km/h
Temperatura: 15°C
Rocío: 8°C
Humedad: 63%
Barómetro: 1021 hPa
Resumen: Despejado
Visibility: greater than 10 km
2017/09/23 03:30 LEMD 230330Z VRB02KT CAVOK 15/08 Q1021 NOSIG
 
LEGR - Granada Airport, Spain
Distance from station: OSO 62km
Actualización: 23/09/2017 05:30
Despejado
Despejado
 Viento del OSO
Viento: OSO 7 km/h
Temperatura: 16°C
Rocío: 14°C
Humedad: 88%
Barómetro: 1019 hPa
Clouds: Despejado
Visibility: 10 km
2017/09/23 03:30 LEGR 230330Z AUTO 24004KT 9999 NCD 16/14 Q1019
LEMG - Malaga (civ/Mil), Spain
Distance from station: OSO 227km
Actualización: 23/09/2017 05:30
Muy nuboso
Muy nuboso
 Viento del varies
Viento: varies 2 km/h
Temperatura: 23°C
Rocío: 18°C
Humedad: 74%
Barómetro: 1018 hPa
Clouds: Muy nuboso
Visibility: 10 km
Cloud details: Muy nuboso 1372 m
2017/09/23 03:30 LEMG 230330Z VRB01KT 9999 BKN045 23/18 Q1018 NOSIG
 
LEZL - Sevilla (civ/Mil, Spain
Distance from station: S 318km
Actualización: 23/09/2017 05:30
Despejado
Despejado
 Viento del NNE
Viento: NNE 9 km/h
Temperatura: 18°C
Rocío: 13°C
Humedad: 73%
Barómetro: 1016 hPa
Resumen: Despejado
Visibility: greater than 10 km
2017/09/23 03:30 LEZL 230330Z 03005KT CAVOK 18/13 Q1016 NOSIG
LEVT - Vitoria, Spain
Distance from station: NO 226km
Actualización: 23/09/2017 05:30
Niebla, Cubierto
Niebla, Cubierto
 Viento del varies
Viento: varies 2 km/h
Temperatura: 12°C
Rocío: 12°C
Humedad: 100%
Barómetro: 1021 hPa
Resumen: Niebla
Clouds: Cubierto
Visibility: 0 km
Cloud details: Cubierto 61 m
2017/09/23 03:30 LEVT 230330Z VRB01KT 0200 R04/0450N FG VV002 12/12 Q1021
 
LEBB - Bilbao/Sondica, Spain
Distance from station: NNO 235km
Actualización: 23/09/2017 05:30
Muy nuboso
Muy nuboso
 Viento del ESE
Viento: ESE 11 km/h
Temperatura: 14°C
Rocío: 14°C
Humedad: 100%
Barómetro: 1019 hPa
Clouds: Muy nuboso
Visibility: 7 km
Cloud details: Muy nuboso 61 m
2017/09/23 03:30 LEBB 230330Z 12006KT 090V150 7000 BKN002 14/14 Q1019 TEMPO 3000 BR
LESO - San Sebastian/Fu, Spain
Distance from station: N 231km
Actualización: 23/09/2017 05:30
Despejado
Despejado
 Viento del varies
Viento: varies 2 km/h
Temperatura: 13°C
Rocío: 13°C
Humedad: 100%
Barómetro: 1019 hPa
Resumen: Despejado
Visibility: greater than 10 km
2017/09/23 03:30 LESO 230330Z VRB01KT CAVOK 13/13 Q1019
 
LEVD - Valladolid(Mil/C, Spain
Distance from station: ONO 239km
Actualización: 22/09/2017 21:30
NOT Current
Despejado
Despejado
 Viento del NNE
Viento: NNE 13 km/h
Temperatura: 18°C
Rocío: 8°C
Humedad: 52%
Barómetro: 1019 hPa
Resumen: Despejado
Visibility: greater than 10 km
2017/09/22 19:30 LEVD 221930Z 03007KT CAVOK 18/08 Q1019
LESA - Salamanca (civ/M, Spain
Distance from station: ONO 349km
Actualización: 22/09/2017 22:30
NOT Current
Despejado
Despejado
 Viento del varies
Viento: varies 2 km/h
Temperatura: 13°C
Rocío: 9°C
Humedad: 77%
Barómetro: 1020 hPa
Resumen: Despejado
Visibility: greater than 10 km
2017/09/22 20:30 LESA 222030Z VRB01KT CAVOK 13/09 Q1020
 
LEXJ - Santander/Paraya, Spain
Distance from station: NNO 247km
Actualización: 23/09/2017 05:30
Parcialmente nuboso
Parcialmente nuboso
 Viento del calm
Viento: Calma
Temperatura: 13°C
Rocío: 13°C
Humedad: 100%
Barómetro: 1017 hPa
Clouds: Parcialmente nuboso
Visibility: 7 km
2017/09/23 03:30 LEXJ 230330Z 00000KT 7000 NSC 13/13 Q1017
LEAS - Asturias/Aviles, Spain
Distance from station: NO 214km
Actualización: 23/09/2017 05:30
Despejado
Despejado
 Viento del SSO
Viento: SSO 7 km/h
Temperatura: 13°C
Rocío: 13°C
Humedad: 100%
Barómetro: 1016 hPa
Clouds: Despejado
Visibility: 7 km
2017/09/23 03:30 LEAS 230330Z AUTO 20004KT 7000 NCD 13/13 Q1016
 
LECO - La Coruna/Alvedr, Spain
Distance from station: ONO 222km
Actualización: 23/09/2017 05:30
Few Clouds
Few Clouds
 Viento del S
Viento: S 6 km/h
Temperatura: 11°C
Rocío: 11°C
Humedad: 100%
Barómetro: 1016 hPa
Clouds: Few Clouds
Visibility: 10 km
Cloud details: Few Clouds 30 m
2017/09/23 03:30 LECO 230330Z 19003KT 9999 FEW001 11/11 Q1016 TEMPO 3000 BCFG
LEVX - Vigo/Peinador, Spain
Distance from station: O 214km
Actualización: 23/09/2017 05:30
Despejado
Despejado
 Viento del SSO
Viento: SSO 11 km/h
Temperatura: 15°C
Rocío: 13°C
Humedad: 88%
Barómetro: 1017 hPa
Resumen: Despejado
Visibility: greater than 10 km
2017/09/23 03:30 LEVX 230330Z 20006KT CAVOK 15/13 Q1017 NOSIG